Lucca, North Dakota
Current Conditions -  °F | °C
As of 12:35 PM on Friday 28 Nov 2014 (Local Time) from KGWR Reporting Station
Overcast Overcast  
Wind Chill:   Ceiling: 600
Heat Index: 16°   Visibility: 10mi
Dew Point: 10°   Wind: 12mph
Humidity: 79%   Direction: 100°E
Pressure: 29.79"   Gusts: NA
Location:  46.5866°N, 97.6237°W
Report Text: KGWR 281835Z AUTO 10010KT 10SM OVC006 M09/M12 A2979 RMK A01 P000
Loading
Personal Weather Stations






























Interactive Weather Map New forecast layout! Learn more

10-Day Weather Forecast

Advertisements
Track Severe Weather on mobile